createdAt,value
2019-02-10T00:00:40.728Z,7.15
2019-02-10T00:03:09.150Z,7.11
2019-02-10T00:05:37.599Z,7.10
2019-02-10T00:08:06.098Z,7.11
2019-02-10T00:10:34.493Z,7.10
2019-02-10T00:13:28.239Z,7.11
2019-02-10T00:15:58.585Z,7.08
2019-02-10T00:18:27.064Z,7.11
2019-02-10T00:20:55.472Z,7.10
2019-02-10T00:23:23.865Z,7.09
2019-02-10T00:25:52.292Z,7.08
2019-02-10T00:28:20.776Z,7.10
2019-02-10T00:30:49.204Z,7.13
2019-02-10T00:33:17.565Z,7.13
2019-02-10T00:35:46.635Z,7.14
2019-02-10T00:38:15.037Z,7.11
2019-02-10T00:40:43.430Z,7.08
2019-02-10T00:43:11.854Z,7.07
2019-02-10T00:45:40.274Z,7.07
2019-02-10T00:48:08.675Z,7.10
2019-02-10T00:50:37.091Z,7.10
2019-02-10T00:53:05.511Z,7.10
2019-02-10T00:55:33.902Z,7.10
2019-02-10T00:58:02.314Z,7.09
2019-02-10T01:00:30.695Z,7.08
2019-02-10T01:02:59.200Z,7.09
2019-02-10T01:05:27.674Z,7.09
2019-02-10T01:07:56.137Z,7.12
2019-02-10T01:10:25.762Z,7.12
2019-02-10T01:12:54.420Z,7.10
2019-02-10T01:15:22.799Z,7.12
2019-02-10T01:17:51.309Z,7.16
2019-02-10T01:20:19.777Z,7.17
2019-02-10T01:22:48.276Z,7.16
2019-02-10T01:25:16.667Z,7.19
2019-02-10T01:27:45.144Z,7.20
2019-02-10T01:30:15.301Z,7.26
2019-02-10T01:32:43.843Z,7.29
2019-02-10T01:35:12.381Z,7.32
2019-02-10T01:37:40.785Z,7.30
2019-02-10T01:40:10.542Z,7.30
2019-02-10T01:42:39.078Z,7.30
2019-02-10T01:45:10.701Z,7.30
2019-02-10T01:47:39.106Z,7.26
2019-02-10T01:50:09.960Z,7.26
2019-02-10T01:52:38.423Z,7.28
2019-02-10T01:55:09.828Z,7.27
2019-02-10T01:57:38.221Z,7.28
2019-02-10T02:00:10.023Z,7.31
2019-02-10T02:02:38.435Z,7.32
2019-02-10T02:05:08.138Z,7.35
2019-02-10T02:07:36.549Z,7.36
2019-02-10T02:10:06.476Z,7.34
2019-02-10T02:12:34.906Z,7.34
2019-02-10T02:15:03.421Z,7.36
2019-02-10T02:17:31.811Z,7.36
2019-02-10T02:20:00.249Z,7.36
2019-02-10T02:22:28.714Z,7.33
2019-02-10T02:24:57.201Z,7.30
2019-02-10T02:27:25.603Z,7.31
2019-02-10T02:29:54.049Z,7.32
2019-02-10T02:32:22.464Z,7.31
2019-02-10T02:34:50.858Z,7.31
2019-02-10T02:37:19.280Z,7.29
2019-02-10T02:39:48.248Z,7.28
2019-02-10T02:42:16.655Z,7.26
2019-02-10T02:44:45.065Z,7.22
2019-02-10T02:47:13.478Z,7.17
2019-02-10T02:49:41.954Z,7.10
2019-02-10T02:52:10.372Z,7.07
2019-02-10T02:54:38.769Z,7.04
2019-02-10T02:57:07.174Z,7.03
2019-02-10T02:59:35.570Z,6.98
2019-02-10T03:02:03.983Z,6.94
2019-02-10T03:04:32.387Z,6.92
2019-02-10T03:07:00.805Z,6.89
2019-02-10T03:09:29.226Z,6.87
2019-02-10T03:11:57.689Z,6.82
2019-02-10T03:14:26.097Z,6.80
2019-02-10T03:16:54.489Z,6.79
2019-02-10T03:19:22.888Z,6.77
2019-02-10T03:21:51.380Z,6.75
2019-02-10T03:24:19.780Z,6.74
2019-02-10T03:26:48.188Z,6.74
2019-02-10T03:29:16.567Z,6.70
2019-02-10T03:31:44.987Z,6.71
2019-02-10T03:34:13.374Z,6.68
2019-02-10T03:36:41.781Z,6.66
2019-02-10T03:39:10.200Z,6.64
2019-02-10T03:41:38.664Z,6.63
2019-02-10T03:44:07.090Z,6.59
2019-02-10T03:46:35.479Z,6.58
2019-02-10T03:49:03.963Z,6.57
2019-02-10T03:51:32.360Z,6.56
2019-02-10T03:54:00.774Z,6.51
2019-02-10T03:56:29.162Z,6.52
2019-02-10T03:58:57.642Z,6.49
2019-02-10T04:01:26.038Z,6.47
2019-02-10T04:03:54.441Z,6.46
2019-02-10T04:06:22.846Z,6.45
2019-02-10T04:08:51.269Z,6.43
2019-02-10T04:11:19.686Z,6.43
2019-02-10T04:13:48.094Z,6.41
2019-02-10T04:16:16.505Z,6.40
2019-02-10T04:18:44.900Z,6.37
2019-02-10T04:21:13.305Z,6.34
2019-02-10T04:23:41.740Z,6.33
2019-02-10T04:26:10.134Z,6.32
2019-02-10T04:28:38.559Z,6.31
2019-02-10T04:31:06.963Z,6.30
2019-02-10T04:33:35.378Z,6.30
2019-02-10T04:36:03.782Z,6.31
2019-02-10T04:38:32.186Z,6.29
2019-02-10T04:41:00.594Z,6.29
2019-02-10T04:43:29.073Z,6.27
2019-02-10T04:45:57.495Z,6.28
2019-02-10T04:48:25.902Z,6.27
2019-02-10T04:50:54.325Z,6.27
2019-02-10T04:53:22.720Z,6.28
2019-02-10T04:56:11.314Z,6.28
2019-02-10T04:58:39.707Z,6.26
2019-02-10T05:01:08.122Z,6.28
2019-02-10T05:03:36.523Z,6.28
2019-02-10T05:06:04.997Z,6.28
2019-02-10T05:08:33.415Z,6.28
2019-02-10T05:11:01.809Z,6.29
2019-02-10T05:13:30.389Z,6.29
2019-02-10T05:15:58.789Z,6.30
2019-02-10T05:18:27.191Z,6.30
2019-02-10T05:20:55.587Z,6.30
2019-02-10T05:23:23.980Z,6.30
2019-02-10T05:25:52.407Z,6.31
2019-02-10T05:28:20.796Z,6.32
2019-02-10T05:30:49.225Z,6.33
2019-02-10T05:33:17.640Z,6.34
2019-02-10T05:35:46.051Z,6.34
2019-02-10T05:38:14.463Z,6.38
2019-02-10T05:40:42.874Z,6.38
2019-02-10T05:43:11.270Z,6.40
2019-02-10T05:45:39.684Z,6.41
2019-02-10T05:48:08.079Z,6.42
2019-02-10T05:50:36.468Z,6.44
2019-02-10T05:53:04.946Z,6.46
2019-02-10T05:55:33.342Z,6.47
2019-02-10T05:58:01.847Z,6.49
2019-02-10T06:00:30.496Z,6.50
2019-02-10T06:02:58.902Z,6.51
2019-02-10T06:05:27.371Z,6.53
2019-02-10T06:07:55.761Z,6.53
2019-02-10T06:10:24.249Z,6.54
2019-02-10T06:12:52.642Z,6.54
2019-02-10T06:15:21.116Z,6.57
2019-02-10T06:17:49.463Z,6.57
2019-02-10T06:20:17.852Z,6.58
2019-02-10T06:22:46.317Z,6.61
2019-02-10T06:25:14.739Z,6.61
2019-02-10T06:27:43.160Z,6.61
2019-02-10T06:30:11.691Z,6.63
2019-02-10T06:32:40.112Z,6.65
2019-02-10T06:35:09.439Z,6.66
2019-02-10T06:37:37.930Z,6.67
2019-02-10T06:40:08.065Z,6.68
2019-02-10T06:42:36.481Z,6.68
2019-02-10T06:45:07.743Z,6.69
2019-02-10T06:47:36.230Z,6.70
2019-02-10T06:50:05.387Z,6.70
2019-02-10T06:52:33.809Z,6.71
2019-02-10T06:55:02.210Z,6.71
2019-02-10T06:57:30.601Z,6.76
2019-02-10T07:00:03.441Z,6.79
2019-02-10T07:02:38.998Z,6.80
2019-02-10T07:05:10.435Z,6.82
2019-02-10T07:07:38.831Z,6.83
2019-02-10T07:10:08.016Z,6.83
2019-02-10T07:12:49.749Z,6.87
2019-02-10T07:15:37.546Z,6.88
2019-02-10T07:18:42.124Z,6.90
2019-02-10T07:21:10.551Z,6.91
2019-02-10T07:23:58.735Z,6.95
2019-02-10T07:26:33.074Z,7.02
2019-02-10T07:29:01.482Z,7.01
2019-02-10T07:31:29.962Z,7.04
2019-02-10T07:34:07.060Z,7.05
2019-02-10T07:36:38.511Z,7.07
2019-02-10T07:39:18.828Z,7.12
2019-02-10T07:42:17.336Z,7.21
2019-02-10T07:44:57.370Z,7.26
2019-02-10T07:47:31.584Z,7.28
2019-02-10T07:50:11.840Z,7.28
2019-02-10T07:52:52.400Z,7.34
2019-02-10T07:55:42.071Z,7.36
2019-02-10T07:58:33.203Z,7.39
2019-02-10T08:01:04.689Z,7.39
2019-02-10T08:03:42.148Z,7.40
2019-02-10T08:06:22.395Z,7.42
2019-02-10T08:08:53.853Z,7.43
2019-02-10T08:11:36.654Z,7.44
2019-02-10T08:14:20.161Z,7.46
2019-02-10T08:17:00.628Z,7.49
2019-02-10T08:19:38.198Z,7.53
2019-02-10T08:22:29.329Z,7.55
2019-02-10T08:25:00.783Z,7.57
2019-02-10T08:27:41.141Z,7.57
2019-02-10T08:30:30.635Z,7.63
2019-02-10T08:33:02.108Z,7.67
2019-02-10T08:35:36.081Z,7.68
2019-02-10T08:38:10.116Z,7.65
2019-02-10T08:40:47.443Z,7.71
2019-02-10T08:43:30.772Z,7.72
2019-02-10T08:46:17.172Z,7.74
2019-02-10T08:48:57.521Z,7.75
2019-02-10T08:51:38.005Z,7.73
2019-02-10T08:54:06.845Z,7.74
2019-02-10T08:56:36.633Z,7.75
2019-02-10T08:59:05.142Z,7.75
2019-02-10T09:01:33.553Z,7.77
2019-02-10T09:04:01.966Z,7.77
2019-02-10T09:06:30.362Z,7.82
2019-02-10T09:09:02.674Z,7.79
2019-02-10T09:11:28.881Z,7.82
2019-02-10T09:13:57.291Z,7.87
2019-02-10T09:16:25.689Z,7.87
2019-02-10T09:18:54.108Z,7.89
2019-02-10T09:21:22.533Z,7.92
2019-02-10T09:23:50.949Z,7.96
2019-02-10T09:26:19.378Z,7.99
2019-02-10T09:28:47.802Z,8.00
2019-02-10T09:31:16.199Z,8.00
2019-02-10T09:33:44.624Z,8.06
2019-02-10T09:36:13.109Z,8.08
2019-02-10T09:38:41.518Z,8.07
2019-02-10T09:41:09.933Z,8.03
2019-02-10T09:43:38.363Z,8.04
2019-02-10T09:46:06.817Z,8.07
2019-02-10T09:48:35.233Z,8.06
2019-02-10T09:51:03.644Z,8.04
2019-02-10T09:53:32.059Z,8.05
2019-02-10T09:56:00.461Z,8.04
2019-02-10T09:58:28.850Z,8.04
2019-02-10T10:00:57.345Z,8.04
2019-02-10T10:03:25.747Z,8.03
2019-02-10T10:05:54.161Z,8.03
2019-02-10T10:08:22.556Z,8.02
2019-02-10T10:10:50.978Z,8.02
2019-02-10T10:13:19.389Z,8.04
2019-02-10T10:15:47.781Z,8.05
2019-02-10T10:18:16.297Z,8.06
2019-02-10T10:20:44.801Z,8.04
2019-02-10T10:23:13.229Z,8.04
2019-02-10T10:25:41.628Z,8.06
2019-02-10T10:28:10.096Z,8.05
2019-02-10T10:30:38.522Z,8.05
2019-02-10T10:33:06.915Z,8.05
2019-02-10T10:35:35.324Z,8.02
2019-02-10T10:38:03.732Z,8.03
2019-02-10T10:40:32.155Z,8.05
2019-02-10T10:43:00.555Z,8.07
2019-02-10T10:45:29.058Z,8.04
2019-02-10T10:47:57.471Z,8.04
2019-02-10T10:50:25.886Z,8.05
2019-02-10T10:52:54.284Z,8.05
2019-02-10T10:55:22.682Z,8.09
2019-02-10T10:57:51.163Z,8.09
2019-02-10T11:00:19.663Z,8.12
2019-02-10T11:02:48.078Z,8.19
2019-02-10T11:05:16.561Z,8.19
2019-02-10T11:07:44.966Z,8.27
2019-02-10T11:10:13.837Z,8.28
2019-02-10T11:12:42.238Z,8.43
2019-02-10T11:15:15.552Z,8.43
2019-02-10T11:17:43.970Z,8.41
2019-02-10T11:20:12.916Z,8.39
2019-02-10T11:22:41.373Z,8.36
2019-02-10T11:25:11.809Z,8.40
2019-02-10T11:27:40.266Z,8.41
2019-02-10T11:30:11.801Z,8.43
2019-02-10T11:32:40.279Z,8.40
2019-02-10T11:35:09.352Z,8.36
2019-02-10T11:37:37.753Z,8.35
2019-02-10T11:40:08.824Z,8.37
2019-02-10T11:42:37.294Z,8.37
2019-02-10T11:45:13.394Z,8.35
2019-02-10T11:47:41.800Z,8.33
2019-02-10T11:50:12.461Z,8.33
2019-02-10T11:52:40.870Z,8.32
2019-02-10T11:55:10.334Z,8.33
2019-02-10T11:57:38.815Z,8.32
2019-02-10T12:00:17.567Z,8.30
2019-02-10T12:02:45.959Z,8.31
2019-02-10T12:05:14.501Z,8.31
2019-02-10T12:07:42.921Z,8.29
2019-02-10T12:10:14.683Z,8.27
2019-02-10T12:12:43.087Z,8.26
2019-02-10T12:15:13.336Z,8.27
2019-02-10T12:17:41.760Z,8.24
2019-02-10T12:20:12.006Z,8.19
2019-02-10T12:22:40.409Z,8.15
2019-02-10T12:25:10.345Z,8.17
2019-02-10T12:27:38.760Z,8.12
2019-02-10T12:30:14.796Z,8.06
2019-02-10T12:32:43.253Z,8.03
2019-02-10T12:35:14.906Z,7.98
2019-02-10T12:37:43.382Z,7.93
2019-02-10T12:40:12.545Z,7.90
2019-02-10T12:42:40.958Z,7.88
2019-02-10T12:45:11.286Z,7.86
2019-02-10T12:47:39.769Z,6.25
2019-02-10T12:50:15.104Z,7.81
2019-02-10T12:52:43.610Z,7.80
2019-02-10T12:55:12.852Z,7.76
2019-02-10T12:57:41.354Z,7.75
2019-02-10T13:00:17.333Z,7.72
2019-02-10T13:02:45.853Z,7.70
2019-02-10T13:05:14.443Z,7.66
2019-02-10T13:07:42.923Z,7.65
2019-02-10T13:10:13.076Z,7.62
2019-02-10T13:12:41.485Z,7.63
2019-02-10T13:15:11.137Z,7.64
2019-02-10T13:17:39.541Z,7.67
2019-02-10T13:20:12.964Z,7.65
2019-02-10T13:22:41.428Z,7.67
2019-02-10T13:25:11.945Z,7.72
2019-02-10T13:27:40.433Z,7.78
2019-02-10T13:30:19.172Z,7.93
2019-02-10T13:32:47.667Z,8.19
2019-02-10T13:35:16.128Z,8.18
2019-02-10T13:37:44.517Z,8.11
2019-02-10T13:40:20.620Z,8.07
2019-02-10T13:42:49.016Z,8.01
2019-02-10T13:45:17.499Z,7.94
2019-02-10T13:47:45.976Z,7.91
2019-02-10T13:50:18.953Z,7.89
2019-02-10T13:52:47.483Z,7.87
2019-02-10T13:55:16.938Z,7.84
2019-02-10T13:57:45.466Z,7.85
2019-02-10T14:00:21.150Z,7.82
2019-02-10T14:02:49.633Z,7.82
2019-02-10T14:05:18.104Z,7.84
2019-02-10T14:07:46.578Z,7.87
2019-02-10T14:10:16.126Z,7.88
2019-02-10T14:12:44.798Z,7.85
2019-02-10T14:15:15.232Z,7.84
2019-02-10T14:17:43.691Z,7.84
2019-02-10T14:20:17.054Z,7.85
2019-02-10T14:22:45.471Z,7.85
2019-02-10T14:25:14.006Z,7.83
2019-02-10T14:27:42.570Z,7.81
2019-02-10T14:30:13.856Z,7.80
2019-02-10T14:32:42.243Z,7.78
2019-02-10T14:35:10.834Z,7.73
2019-02-10T14:37:39.262Z,7.71
2019-02-10T14:40:08.222Z,7.67
2019-02-10T14:42:36.651Z,7.62
2019-02-10T14:45:08.604Z,7.54
2019-02-10T14:47:36.996Z,7.49
2019-02-10T14:50:14.240Z,7.46
2019-02-10T14:52:42.708Z,7.39
2019-02-10T14:55:11.259Z,7.35
2019-02-10T14:57:39.666Z,7.29
2019-02-10T15:00:11.315Z,7.24
2019-02-10T15:02:39.736Z,7.21
2019-02-10T15:05:08.598Z,7.19
2019-02-10T15:07:36.982Z,7.13
2019-02-10T15:10:11.932Z,7.09
2019-02-10T15:12:40.439Z,7.06
2019-02-10T15:15:10.662Z,7.03
2019-02-10T15:17:39.123Z,6.99
2019-02-10T15:20:09.627Z,6.95
2019-02-10T15:22:38.088Z,6.95
2019-02-10T15:25:09.458Z,6.90
2019-02-10T15:27:37.828Z,6.90
2019-02-10T15:30:09.259Z,6.91
2019-02-10T15:32:37.651Z,6.89
2019-02-10T15:35:07.059Z,6.89
2019-02-10T15:37:35.450Z,6.88
2019-02-10T15:40:05.124Z,6.89
2019-02-10T15:42:33.533Z,6.91
2019-02-10T15:45:01.939Z,6.91
2019-02-10T15:47:30.365Z,6.91
2019-02-10T15:49:58.779Z,6.90
2019-02-10T15:52:27.154Z,6.89
2019-02-10T15:54:55.591Z,6.87
2019-02-10T15:57:24.248Z,6.85
2019-02-10T15:59:52.667Z,6.84
2019-02-10T16:02:21.144Z,6.83
2019-02-10T16:04:49.584Z,6.81
2019-02-10T16:07:18.075Z,6.79
2019-02-10T16:09:46.481Z,6.76
2019-02-10T16:12:14.952Z,6.73
2019-02-10T16:14:43.419Z,6.71
2019-02-10T16:17:11.836Z,6.68
2019-02-10T16:19:40.269Z,6.65
2019-02-10T16:22:08.705Z,6.63
2019-02-10T16:24:37.119Z,6.60
2019-02-10T16:27:05.526Z,6.55
2019-02-10T16:29:33.919Z,6.50
2019-02-10T16:32:02.309Z,6.45
2019-02-10T16:34:30.731Z,6.42
2019-02-10T16:36:59.155Z,6.40
2019-02-10T16:39:27.549Z,6.33
2019-02-10T16:41:55.961Z,6.30
2019-02-10T16:44:24.396Z,6.30
2019-02-10T16:46:52.896Z,6.28
2019-02-10T16:49:21.296Z,6.24
2019-02-10T16:51:49.715Z,6.25
2019-02-10T16:54:18.111Z,6.24
2019-02-10T16:56:46.509Z,6.23
2019-02-10T16:59:15.023Z,6.23
2019-02-10T17:01:43.410Z,6.22
2019-02-10T17:04:11.847Z,6.21
2019-02-10T17:06:40.241Z,6.20
2019-02-10T17:09:08.704Z,6.17
2019-02-10T17:11:37.307Z,6.15
2019-02-10T17:14:05.721Z,6.12
2019-02-10T17:16:34.200Z,6.11
2019-02-10T17:19:02.604Z,6.09
2019-02-10T17:21:31.031Z,6.09
2019-02-10T17:23:59.425Z,6.04
2019-02-10T17:26:27.851Z,6.04
2019-02-10T17:28:56.424Z,5.99
2019-02-10T17:31:24.848Z,5.99
2019-02-10T17:33:53.277Z,5.98
2019-02-10T17:36:21.699Z,5.98
2019-02-10T17:38:50.119Z,5.95
2019-02-10T17:41:22.914Z,5.96
2019-02-10T17:43:50.716Z,5.94
2019-02-10T17:46:19.112Z,5.93
2019-02-10T17:48:47.540Z,5.95
2019-02-10T17:51:15.931Z,5.94
2019-02-10T17:53:44.408Z,5.93
2019-02-10T17:56:12.837Z,5.93
2019-02-10T17:58:41.345Z,5.93
2019-02-10T18:01:09.823Z,5.94
2019-02-10T18:03:38.256Z,5.90
2019-02-10T18:06:06.668Z,5.85
2019-02-10T18:08:35.208Z,5.83
2019-02-10T18:11:03.687Z,5.79
2019-02-10T18:13:32.120Z,5.73
2019-02-10T18:16:02.146Z,5.70
2019-02-10T18:18:45.431Z,5.71
2019-02-10T18:21:27.991Z,5.66
2019-02-10T18:24:03.973Z,5.62
2019-02-10T18:26:50.131Z,5.60
2019-02-10T18:29:20.183Z,5.57
2019-02-10T18:31:50.226Z,5.55
2019-02-10T18:34:32.166Z,5.51
2019-02-10T18:37:20.603Z,5.49
2019-02-10T18:40:08.720Z,5.48
2019-02-10T18:42:47.589Z,5.42
2019-02-10T18:45:23.588Z,5.42
2019-02-10T18:47:53.644Z,5.38
2019-02-10T18:50:32.892Z,5.37
2019-02-10T18:53:03.039Z,5.36
2019-02-10T18:55:41.968Z,5.32
2019-02-10T18:58:18.314Z,5.34
2019-02-10T19:00:54.052Z,5.30
2019-02-10T19:03:26.785Z,5.28
2019-02-10T19:06:02.579Z,5.26
2019-02-10T19:08:35.367Z,5.22
2019-02-10T19:11:08.332Z,5.21
2019-02-10T19:13:38.361Z,5.21
2019-02-10T19:16:08.513Z,5.17
2019-02-10T19:18:41.850Z,5.17
2019-02-10T19:21:11.918Z,5.14
2019-02-10T19:23:41.983Z,5.12
2019-02-10T19:26:27.107Z,5.09
2019-02-10T19:28:57.179Z,5.05
2019-02-10T19:31:43.522Z,5.01
2019-02-10T19:34:19.653Z,4.98
2019-02-10T19:37:01.853Z,4.87
2019-02-10T19:39:46.949Z,4.79
2019-02-10T19:42:20.051Z,4.73
2019-02-10T19:44:50.139Z,4.71
2019-02-10T19:47:20.187Z,4.70
2019-02-10T19:49:59.160Z,4.67
2019-02-10T19:52:44.569Z,4.58
2019-02-10T19:55:14.629Z,4.53
2019-02-10T19:58:00.883Z,4.50
2019-02-10T20:00:31.017Z,4.46
2019-02-10T20:03:01.128Z,4.43
2019-02-10T20:05:49.650Z,4.39
2019-02-10T20:08:25.584Z,4.34
2019-02-10T20:10:58.459Z,4.31
2019-02-10T20:13:28.612Z,4.31
2019-02-10T20:16:01.596Z,4.28
2019-02-10T20:18:48.153Z,4.27
2019-02-10T20:21:29.831Z,4.25
2019-02-10T20:24:02.550Z,4.23
2019-02-10T20:26:32.585Z,4.25
2019-02-10T20:29:05.626Z,4.25
2019-02-10T20:31:35.708Z,4.23
2019-02-10T20:34:05.793Z,4.13
2019-02-10T20:36:47.537Z,4.08
2019-02-10T20:39:17.579Z,4.07
2019-02-10T20:42:03.003Z,4.03
2019-02-10T20:44:49.560Z,4.02
2019-02-10T20:47:28.620Z,3.99
2019-02-10T20:50:01.867Z,3.91
2019-02-10T20:52:34.855Z,3.86
2019-02-10T20:55:05.064Z,3.84
2019-02-10T20:57:37.890Z,3.83
2019-02-10T21:00:16.457Z,3.73
2019-02-10T21:02:46.533Z,3.66
2019-02-10T21:05:16.606Z,3.62
2019-02-10T21:07:55.597Z,3.48
2019-02-10T21:10:31.443Z,3.43
2019-02-10T21:13:04.500Z,3.43
2019-02-10T21:15:34.543Z,3.38
2019-02-10T21:18:20.952Z,3.36
2019-02-10T21:20:51.603Z,3.35
2019-02-10T21:23:21.653Z,3.33
2019-02-10T21:25:53.016Z,3.33
2019-02-10T21:28:28.613Z,3.29
2019-02-10T21:31:13.456Z,3.24
2019-02-10T21:34:02.593Z,3.15
2019-02-10T21:36:41.711Z,3.09
2019-02-10T21:39:27.739Z,3.04
2019-02-10T21:42:08.792Z,3.03
2019-02-10T21:44:44.170Z,2.81
2019-02-10T21:47:17.070Z,2.74
2019-02-10T21:49:45.490Z,2.64
2019-02-10T21:52:13.859Z,2.54
2019-02-10T21:54:42.272Z,2.54
2019-02-10T21:57:10.659Z,2.52
2019-02-10T21:59:39.074Z,2.49
2019-02-10T22:02:07.477Z,2.50
2019-02-10T22:04:35.890Z,2.47
2019-02-10T22:07:04.452Z,2.48
2019-02-10T22:09:32.885Z,2.52
2019-02-10T22:12:01.281Z,2.46
2019-02-10T22:14:29.705Z,2.46
2019-02-10T22:16:58.092Z,2.45
2019-02-10T22:19:26.480Z,2.44
2019-02-10T22:21:54.908Z,2.43
2019-02-10T22:24:23.302Z,2.41
2019-02-10T22:26:51.704Z,2.42
2019-02-10T22:29:20.118Z,2.40
2019-02-10T22:31:48.592Z,2.42
2019-02-10T22:34:16.989Z,2.40
2019-02-10T22:36:45.400Z,2.42
2019-02-10T22:39:13.804Z,2.46
2019-02-10T22:41:42.194Z,2.45
2019-02-10T22:44:10.601Z,2.48
2019-02-10T22:46:39.081Z,2.49
2019-02-10T22:49:07.515Z,2.51
2019-02-10T22:51:35.912Z,2.55
2019-02-10T22:54:04.327Z,2.58
2019-02-10T22:56:32.749Z,2.63
2019-02-10T22:59:01.171Z,2.63
2019-02-10T23:01:30.015Z,2.65
2019-02-10T23:03:58.437Z,2.66
2019-02-10T23:06:26.952Z,2.67
2019-02-10T23:08:55.393Z,2.64
2019-02-10T23:11:23.776Z,2.63
2019-02-10T23:13:52.162Z,2.66
2019-02-10T23:16:20.587Z,2.67
2019-02-10T23:18:48.996Z,2.66
2019-02-10T23:21:17.406Z,2.68
2019-02-10T23:23:45.833Z,2.70
2019-02-10T23:26:14.237Z,2.73
2019-02-10T23:28:42.639Z,2.75
2019-02-10T23:31:11.043Z,2.78
2019-02-10T23:33:39.436Z,2.81
2019-02-10T23:36:07.892Z,2.83
2019-02-10T23:38:36.330Z,2.86
2019-02-10T23:41:04.724Z,2.89
2019-02-10T23:43:33.119Z,2.92
2019-02-10T23:46:01.541Z,2.93
2019-02-10T23:48:29.965Z,2.96
2019-02-10T23:50:58.374Z,2.96
2019-02-10T23:53:26.776Z,2.96
2019-02-10T23:55:55.257Z,2.97
2019-02-10T23:58:23.753Z,2.99
